sensor_id;sensor_type;location;lat;lon;timestamp;P1;durP1;ratioP1;P2;durP2;ratioP2
15340;SDS011;7770;52.158;5.372;2024-01-11T00:01:18;22.77;;;13.47;;
15340;SDS011;7770;52.158;5.372;2024-01-11T00:04:04;20.83;;;13.03;;
15340;SDS011;7770;52.158;5.372;2024-01-11T00:06:50;21.63;;;13.40;;
15340;SDS011;7770;52.158;5.372;2024-01-11T00:09:41;18.77;;;12.50;;
15340;SDS011;7770;52.158;5.372;2024-01-11T00:12:28;21.80;;;13.33;;
15340;SDS011;7770;52.158;5.372;2024-01-11T00:15:14;21.93;;;13.67;;
15340;SDS011;7770;52.158;5.372;2024-01-11T00:18:00;23.07;;;12.97;;
15340;SDS011;7770;52.158;5.372;2024-01-11T00:20:46;20.80;;;13.40;;
15340;SDS011;7770;52.158;5.372;2024-01-11T00:23:32;24.27;;;13.67;;
15340;SDS011;7770;52.158;5.372;2024-01-11T00:26:18;20.17;;;12.23;;
15340;SDS011;7770;52.158;5.372;2024-01-11T00:29:04;23.33;;;13.97;;
15340;SDS011;7770;52.158;5.372;2024-01-11T00:31:50;22.93;;;13.63;;
15340;SDS011;7770;52.158;5.372;2024-01-11T00:34:36;23.50;;;14.20;;
15340;SDS011;7770;52.158;5.372;2024-01-11T00:37:22;25.23;;;14.23;;
15340;SDS011;7770;52.158;5.372;2024-01-11T00:40:08;25.00;;;15.80;;
15340;SDS011;7770;52.158;5.372;2024-01-11T00:42:55;23.53;;;14.17;;
15340;SDS011;7770;52.158;5.372;2024-01-11T00:45:41;26.13;;;14.97;;
15340;SDS011;7770;52.158;5.372;2024-01-11T00:48:27;24.67;;;15.10;;
15340;SDS011;7770;52.158;5.372;2024-01-11T00:51:13;26.17;;;15.50;;
15340;SDS011;7770;52.158;5.372;2024-01-11T00:53:59;25.63;;;15.23;;
15340;SDS011;7770;52.158;5.372;2024-01-11T00:56:45;25.60;;;16.07;;
15340;SDS011;7770;52.158;5.372;2024-01-11T00:59:31;23.93;;;14.60;;
15340;SDS011;7770;52.158;5.372;2024-01-11T01:02:17;24.80;;;14.57;;
15340;SDS011;7770;52.158;5.372;2024-01-11T01:05:05;24.23;;;15.07;;
15340;SDS011;7770;52.158;5.372;2024-01-11T01:07:51;23.13;;;13.57;;
15340;SDS011;7770;52.158;5.372;2024-01-11T01:10:38;23.20;;;14.27;;
15340;SDS011;7770;52.158;5.372;2024-01-11T01:13:24;25.40;;;14.73;;
15340;SDS011;7770;52.158;5.372;2024-01-11T01:16:10;25.03;;;14.53;;
15340;SDS011;7770;52.158;5.372;2024-01-11T01:18:56;28.13;;;16.33;;
15340;SDS011;7770;52.158;5.372;2024-01-11T01:21:42;23.50;;;14.53;;
15340;SDS011;7770;52.158;5.372;2024-01-11T01:24:28;23.97;;;15.33;;
15340;SDS011;7770;52.158;5.372;2024-01-11T01:27:16;26.43;;;14.97;;
15340;SDS011;7770;52.158;5.372;2024-01-11T01:30:03;25.73;;;15.37;;
15340;SDS011;7770;52.158;5.372;2024-01-11T01:32:50;23.83;;;14.97;;
15340;SDS011;7770;52.158;5.372;2024-01-11T01:35:36;23.67;;;13.97;;
15340;SDS011;7770;52.158;5.372;2024-01-11T01:38:23;27.30;;;15.67;;
15340;SDS011;7770;52.158;5.372;2024-01-11T01:41:09;26.10;;;15.03;;
15340;SDS011;7770;52.158;5.372;2024-01-11T01:43:55;30.13;;;15.90;;
15340;SDS011;7770;52.158;5.372;2024-01-11T01:46:41;25.47;;;15.63;;
15340;SDS011;7770;52.158;5.372;2024-01-11T01:49:27;24.60;;;14.83;;
15340;SDS011;7770;52.158;5.372;2024-01-11T01:52:13;22.07;;;14.13;;
15340;SDS011;7770;52.158;5.372;2024-01-11T01:55:01;25.93;;;15.23;;
15340;SDS011;7770;52.158;5.372;2024-01-11T01:57:49;24.17;;;14.37;;
15340;SDS011;7770;52.158;5.372;2024-01-11T02:00:36;26.40;;;14.90;;
15340;SDS011;7770;52.158;5.372;2024-01-11T02:03:24;26.87;;;15.37;;
15340;SDS011;7770;52.158;5.372;2024-01-11T02:06:13;28.37;;;15.53;;
15340;SDS011;7770;52.158;5.372;2024-01-11T02:09:00;24.60;;;14.67;;
15340;SDS011;7770;52.158;5.372;2024-01-11T02:11:51;25.43;;;15.70;;
15340;SDS011;7770;52.158;5.372;2024-01-11T02:14:39;26.87;;;16.10;;
15340;SDS011;7770;52.158;5.372;2024-01-11T02:17:26;32.43;;;16.73;;
15340;SDS011;7770;52.158;5.372;2024-01-11T02:20:12;27.20;;;17.20;;
15340;SDS011;7770;52.158;5.372;2024-01-11T02:22:58;29.30;;;17.43;;
15340;SDS011;7770;52.158;5.372;2024-01-11T02:25:51;27.90;;;17.60;;
15340;SDS011;7770;52.158;5.372;2024-01-11T02:28:37;29.17;;;18.40;;
15340;SDS011;7770;52.158;5.372;2024-01-11T02:31:24;31.60;;;18.23;;
15340;SDS011;7770;52.158;5.372;2024-01-11T02:34:10;29.50;;;17.37;;
15340;SDS011;7770;52.158;5.372;2024-01-11T02:36:56;32.20;;;19.10;;
15340;SDS011;7770;52.158;5.372;2024-01-11T02:39:42;31.70;;;18.13;;
15340;SDS011;7770;52.158;5.372;2024-01-11T02:42:29;34.20;;;19.30;;
15340;SDS011;7770;52.158;5.372;2024-01-11T02:45:15;31.53;;;19.17;;
15340;SDS011;7770;52.158;5.372;2024-01-11T02:48:01;31.13;;;19.17;;
15340;SDS011;7770;52.158;5.372;2024-01-11T02:50:48;30.97;;;18.70;;
15340;SDS011;7770;52.158;5.372;2024-01-11T02:53:34;35.93;;;19.67;;
15340;SDS011;7770;52.158;5.372;2024-01-11T02:56:20;33.97;;;19.70;;
15340;SDS011;7770;52.158;5.372;2024-01-11T02:59:06;30.43;;;19.93;;
15340;SDS011;7770;52.158;5.372;2024-01-11T03:01:52;33.60;;;20.33;;
15340;SDS011;7770;52.158;5.372;2024-01-11T03:04:38;35.83;;;20.77;;
15340;SDS011;7770;52.158;5.372;2024-01-11T03:07:24;38.87;;;21.73;;
15340;SDS011;7770;52.158;5.372;2024-01-11T03:10:10;36.77;;;22.20;;
15340;SDS011;7770;52.158;5.372;2024-01-11T03:12:57;40.70;;;22.63;;
15340;SDS011;7770;52.158;5.372;2024-01-11T03:15:43;38.30;;;23.27;;
15340;SDS011;7770;52.158;5.372;2024-01-11T03:18:29;39.93;;;22.27;;
15340;SDS011;7770;52.158;5.372;2024-01-11T03:21:16;41.60;;;23.53;;
15340;SDS011;7770;52.158;5.372;2024-01-11T03:24:02;36.73;;;22.57;;
15340;SDS011;7770;52.158;5.372;2024-01-11T03:26:48;40.37;;;22.97;;
15340;SDS011;7770;52.158;5.372;2024-01-11T03:29:34;46.10;;;24.97;;
15340;SDS011;7770;52.158;5.372;2024-01-11T03:32:20;41.77;;;24.93;;
15340;SDS011;7770;52.158;5.372;2024-01-11T03:35:07;44.73;;;24.33;;
15340;SDS011;7770;52.158;5.372;2024-01-11T03:37:53;42.67;;;24.13;;
15340;SDS011;7770;52.158;5.372;2024-01-11T03:40:39;42.33;;;24.83;;
15340;SDS011;7770;52.158;5.372;2024-01-11T03:43:25;46.43;;;24.43;;
15340;SDS011;7770;52.158;5.372;2024-01-11T03:46:11;45.23;;;25.57;;
15340;SDS011;7770;52.158;5.372;2024-01-11T03:48:57;45.50;;;25.00;;
15340;SDS011;7770;52.158;5.372;2024-01-11T03:51:45;40.13;;;25.13;;
15340;SDS011;7770;52.158;5.372;2024-01-11T03:54:31;42.43;;;24.93;;
15340;SDS011;7770;52.158;5.372;2024-01-11T03:57:17;43.17;;;25.33;;
15340;SDS011;7770;52.158;5.372;2024-01-11T04:00:03;40.93;;;24.97;;
15340;SDS011;7770;52.158;5.372;2024-01-11T04:02:51;43.73;;;24.63;;
15340;SDS011;7770;52.158;5.372;2024-01-11T04:05:37;40.23;;;24.47;;
15340;SDS011;7770;52.158;5.372;2024-01-11T04:08:23;44.47;;;26.37;;
15340;SDS011;7770;52.158;5.372;2024-01-11T04:11:09;46.10;;;26.63;;
15340;SDS011;7770;52.158;5.372;2024-01-11T04:13:55;44.70;;;26.37;;
15340;SDS011;7770;52.158;5.372;2024-01-11T04:16:42;45.97;;;26.20;;
15340;SDS011;7770;52.158;5.372;2024-01-11T04:19:28;45.20;;;26.10;;
15340;SDS011;7770;52.158;5.372;2024-01-11T04:22:14;48.00;;;26.60;;
15340;SDS011;7770;52.158;5.372;2024-01-11T04:25:00;46.00;;;26.90;;
15340;SDS011;7770;52.158;5.372;2024-01-11T04:27:46;46.40;;;26.63;;
15340;SDS011;7770;52.158;5.372;2024-01-11T04:30:32;48.67;;;27.20;;
15340;SDS011;7770;52.158;5.372;2024-01-11T04:33:18;54.27;;;29.03;;
15340;SDS011;7770;52.158;5.372;2024-01-11T04:36:04;48.53;;;27.87;;
15340;SDS011;7770;52.158;5.372;2024-01-11T04:38:51;49.73;;;27.10;;
15340;SDS011;7770;52.158;5.372;2024-01-11T04:41:37;54.67;;;29.90;;
15340;SDS011;7770;52.158;5.372;2024-01-11T04:44:24;49.90;;;28.77;;
15340;SDS011;7770;52.158;5.372;2024-01-11T04:47:10;51.20;;;28.63;;
15340;SDS011;7770;52.158;5.372;2024-01-11T04:49:56;50.83;;;29.63;;
15340;SDS011;7770;52.158;5.372;2024-01-11T04:52:42;50.17;;;29.93;;
15340;SDS011;7770;52.158;5.372;2024-01-11T04:55:28;53.63;;;30.13;;
15340;SDS011;7770;52.158;5.372;2024-01-11T04:58:14;52.00;;;30.03;;
15340;SDS011;7770;52.158;5.372;2024-01-11T05:01:00;51.60;;;28.37;;
15340;SDS011;7770;52.158;5.372;2024-01-11T05:03:47;55.60;;;30.73;;
15340;SDS011;7770;52.158;5.372;2024-01-11T05:06:34;58.60;;;31.93;;
15340;SDS011;7770;52.158;5.372;2024-01-11T05:09:20;49.80;;;29.60;;
15340;SDS011;7770;52.158;5.372;2024-01-11T05:12:06;57.33;;;31.00;;
15340;SDS011;7770;52.158;5.372;2024-01-11T05:14:52;58.63;;;32.50;;
15340;SDS011;7770;52.158;5.372;2024-01-11T05:17:38;56.47;;;32.40;;
15340;SDS011;7770;52.158;5.372;2024-01-11T05:20:25;60.97;;;34.40;;
15340;SDS011;7770;52.158;5.372;2024-01-11T05:23:11;54.73;;;30.77;;
15340;SDS011;7770;52.158;5.372;2024-01-11T05:25:57;54.60;;;31.43;;
15340;SDS011;7770;52.158;5.372;2024-01-11T05:28:43;75.43;;;38.57;;
15340;SDS011;7770;52.158;5.372;2024-01-11T05:31:29;55.63;;;33.33;;
15340;SDS011;7770;52.158;5.372;2024-01-11T05:34:15;53.17;;;32.27;;
15340;SDS011;7770;52.158;5.372;2024-01-11T05:37:01;56.40;;;33.33;;
15340;SDS011;7770;52.158;5.372;2024-01-11T05:39:47;59.70;;;32.63;;
15340;SDS011;7770;52.158;5.372;2024-01-11T05:42:33;56.70;;;32.27;;
15340;SDS011;7770;52.158;5.372;2024-01-11T05:45:19;57.33;;;31.80;;
15340;SDS011;7770;52.158;5.372;2024-01-11T05:48:05;58.53;;;32.80;;
15340;SDS011;7770;52.158;5.372;2024-01-11T05:50:51;57.77;;;33.13;;
15340;SDS011;7770;52.158;5.372;2024-01-11T05:53:37;57.80;;;33.20;;
15340;SDS011;7770;52.158;5.372;2024-01-11T05:56:23;56.37;;;33.43;;
15340;SDS011;7770;52.158;5.372;2024-01-11T05:59:09;53.43;;;31.23;;
15340;SDS011;7770;52.158;5.372;2024-01-11T06:01:55;56.70;;;32.80;;
15340;SDS011;7770;52.158;5.372;2024-01-11T06:04:45;58.83;;;31.97;;
15340;SDS011;7770;52.158;5.372;2024-01-11T06:07:32;58.63;;;34.13;;
15340;SDS011;7770;52.158;5.372;2024-01-11T06:10:18;61.63;;;35.20;;
15340;SDS011;7770;52.158;5.372;2024-01-11T06:13:04;68.60;;;40.63;;
15340;SDS011;7770;52.158;5.372;2024-01-11T06:15:50;57.03;;;32.90;;
15340;SDS011;7770;52.158;5.372;2024-01-11T06:18:36;56.87;;;32.70;;
15340;SDS011;7770;52.158;5.372;2024-01-11T06:21:22;57.23;;;31.77;;
15340;SDS011;7770;52.158;5.372;2024-01-11T06:24:08;53.57;;;31.13;;
15340;SDS011;7770;52.158;5.372;2024-01-11T06:26:54;57.83;;;31.90;;
15340;SDS011;7770;52.158;5.372;2024-01-11T06:29:40;57.53;;;31.13;;
15340;SDS011;7770;52.158;5.372;2024-01-11T06:32:26;55.77;;;31.40;;
15340;SDS011;7770;52.158;5.372;2024-01-11T06:35:12;56.70;;;31.67;;
15340;SDS011;7770;52.158;5.372;2024-01-11T06:37:58;58.00;;;33.83;;
15340;SDS011;7770;52.158;5.372;2024-01-11T06:40:44;53.97;;;31.83;;
15340;SDS011;7770;52.158;5.372;2024-01-11T06:43:30;52.87;;;31.77;;
15340;SDS011;7770;52.158;5.372;2024-01-11T06:46:22;56.13;;;32.80;;
15340;SDS011;7770;52.158;5.372;2024-01-11T06:49:08;56.27;;;31.33;;
15340;SDS011;7770;52.158;5.372;2024-01-11T06:51:54;61.53;;;33.97;;
15340;SDS011;7770;52.158;5.372;2024-01-11T06:54:40;54.73;;;32.03;;
15340;SDS011;7770;52.158;5.372;2024-01-11T06:57:27;58.17;;;32.87;;
15340;SDS011;7770;52.158;5.372;2024-01-11T07:00:13;58.17;;;32.43;;
15340;SDS011;7770;52.158;5.372;2024-01-11T07:03:00;55.33;;;32.20;;
15340;SDS011;7770;52.158;5.372;2024-01-11T07:05:46;59.50;;;31.80;;
15340;SDS011;7770;52.158;5.372;2024-01-11T07:08:32;53.73;;;31.00;;
15340;SDS011;7770;52.158;5.372;2024-01-11T07:11:18;60.30;;;32.87;;
15340;SDS011;7770;52.158;5.372;2024-01-11T07:14:04;57.87;;;31.73;;
15340;SDS011;7770;52.158;5.372;2024-01-11T07:16:50;56.20;;;31.33;;
15340;SDS011;7770;52.158;5.372;2024-01-11T07:19:36;57.70;;;32.30;;
15340;SDS011;7770;52.158;5.372;2024-01-11T07:22:22;59.30;;;32.40;;
15340;SDS011;7770;52.158;5.372;2024-01-11T07:25:09;56.10;;;31.83;;
15340;SDS011;7770;52.158;5.372;2024-01-11T07:27:55;61.77;;;32.70;;
15340;SDS011;7770;52.158;5.372;2024-01-11T07:30:41;54.40;;;31.33;;
15340;SDS011;7770;52.158;5.372;2024-01-11T07:33:27;58.60;;;33.10;;
15340;SDS011;7770;52.158;5.372;2024-01-11T07:36:13;61.33;;;34.33;;
15340;SDS011;7770;52.158;5.372;2024-01-11T07:38:59;64.03;;;34.87;;
15340;SDS011;7770;52.158;5.372;2024-01-11T07:41:45;64.20;;;35.27;;
15340;SDS011;7770;52.158;5.372;2024-01-11T07:44:31;63.37;;;35.03;;
15340;SDS011;7770;52.158;5.372;2024-01-11T07:47:17;60.17;;;34.90;;
15340;SDS011;7770;52.158;5.372;2024-01-11T07:50:04;61.83;;;35.03;;
15340;SDS011;7770;52.158;5.372;2024-01-11T07:52:57;61.10;;;32.03;;
15340;SDS011;7770;52.158;5.372;2024-01-11T07:55:43;61.77;;;34.63;;
15340;SDS011;7770;52.158;5.372;2024-01-11T07:58:32;63.47;;;34.30;;
15340;SDS011;7770;52.158;5.372;2024-01-11T08:01:21;67.70;;;36.23;;
15340;SDS011;7770;52.158;5.372;2024-01-11T08:04:07;65.43;;;35.40;;
15340;SDS011;7770;52.158;5.372;2024-01-11T08:06:53;66.53;;;34.77;;
15340;SDS011;7770;52.158;5.372;2024-01-11T08:09:39;64.30;;;34.60;;
15340;SDS011;7770;52.158;5.372;2024-01-11T08:12:30;61.60;;;34.80;;
15340;SDS011;7770;52.158;5.372;2024-01-11T08:15:16;58.63;;;34.47;;
15340;SDS011;7770;52.158;5.372;2024-01-11T08:18:03;62.33;;;35.13;;
15340;SDS011;7770;52.158;5.372;2024-01-11T08:20:50;64.57;;;37.17;;
15340;SDS011;7770;52.158;5.372;2024-01-11T08:23:39;60.57;;;36.63;;
15340;SDS011;7770;52.158;5.372;2024-01-11T08:26:30;62.40;;;37.17;;
15340;SDS011;7770;52.158;5.372;2024-01-11T08:29:16;55.37;;;35.43;;
15340;SDS011;7770;52.158;5.372;2024-01-11T08:32:04;55.70;;;35.87;;
15340;SDS011;7770;52.158;5.372;2024-01-11T08:34:52;58.37;;;36.80;;
15340;SDS011;7770;52.158;5.372;2024-01-11T08:37:38;57.23;;;35.87;;
15340;SDS011;7770;52.158;5.372;2024-01-11T08:40:24;53.20;;;35.03;;
15340;SDS011;7770;52.158;5.372;2024-01-11T08:43:11;56.47;;;36.20;;
15340;SDS011;7770;52.158;5.372;2024-01-11T08:45:57;52.60;;;35.53;;
15340;SDS011;7770;52.158;5.372;2024-01-11T08:48:44;53.17;;;35.30;;
15340;SDS011;7770;52.158;5.372;2024-01-11T08:51:30;50.73;;;34.33;;
15340;SDS011;7770;52.158;5.372;2024-01-11T08:54:17;49.90;;;34.97;;
15340;SDS011;7770;52.158;5.372;2024-01-11T08:57:06;48.40;;;34.90;;
15340;SDS011;7770;52.158;5.372;2024-01-11T08:59:52;47.23;;;35.33;;
15340;SDS011;7770;52.158;5.372;2024-01-11T09:02:38;45.93;;;35.33;;
15340;SDS011;7770;52.158;5.372;2024-01-11T09:05:24;43.10;;;34.10;;
15340;SDS011;7770;52.158;5.372;2024-01-11T09:08:10;46.50;;;35.63;;
15340;SDS011;7770;52.158;5.372;2024-01-11T09:10:56;46.60;;;36.57;;
15340;SDS011;7770;52.158;5.372;2024-01-11T09:13:45;45.93;;;36.03;;
15340;SDS011;7770;52.158;5.372;2024-01-11T09:16:31;44.13;;;35.53;;
15340;SDS011;7770;52.158;5.372;2024-01-11T09:19:18;41.33;;;33.77;;
15340;SDS011;7770;52.158;5.372;2024-01-11T09:22:04;42.63;;;33.77;;
15340;SDS011;7770;52.158;5.372;2024-01-11T09:24:50;38.87;;;31.67;;
15340;SDS011;7770;52.158;5.372;2024-01-11T09:27:36;43.30;;;32.57;;
15340;SDS011;7770;52.158;5.372;2024-01-11T09:30:22;42.60;;;32.50;;
15340;SDS011;7770;52.158;5.372;2024-01-11T09:33:08;43.07;;;31.73;;
15340;SDS011;7770;52.158;5.372;2024-01-11T09:35:54;40.83;;;29.57;;
15340;SDS011;7770;52.158;5.372;2024-01-11T09:38:41;41.00;;;29.23;;
15340;SDS011;7770;52.158;5.372;2024-01-11T09:41:27;41.40;;;27.93;;
15340;SDS011;7770;52.158;5.372;2024-01-11T09:44:14;42.77;;;27.77;;
15340;SDS011;7770;52.158;5.372;2024-01-11T09:47:01;41.70;;;26.13;;
15340;SDS011;7770;52.158;5.372;2024-01-11T09:49:48;41.40;;;26.83;;
15340;SDS011;7770;52.158;5.372;2024-01-11T09:52:38;42.80;;;25.10;;
15340;SDS011;7770;52.158;5.372;2024-01-11T09:55:25;41.33;;;25.10;;
15340;SDS011;7770;52.158;5.372;2024-01-11T09:58:11;42.97;;;26.60;;
15340;SDS011;7770;52.158;5.372;2024-01-11T10:00:57;42.63;;;25.40;;
15340;SDS011;7770;52.158;5.372;2024-01-11T10:03:44;42.93;;;25.03;;
15340;SDS011;7770;52.158;5.372;2024-01-11T10:06:33;50.63;;;26.90;;
15340;SDS011;7770;52.158;5.372;2024-01-11T10:09:20;43.03;;;24.97;;
15340;SDS011;7770;52.158;5.372;2024-01-11T10:12:08;43.27;;;25.87;;
15340;SDS011;7770;52.158;5.372;2024-01-11T10:14:54;41.40;;;24.50;;
15340;SDS011;7770;52.158;5.372;2024-01-11T10:17:43;42.77;;;25.30;;
15340;SDS011;7770;52.158;5.372;2024-01-11T10:20:30;44.90;;;24.97;;
15340;SDS011;7770;52.158;5.372;2024-01-11T10:23:17;45.63;;;24.20;;
15340;SDS011;7770;52.158;5.372;2024-01-11T10:26:03;40.17;;;23.83;;
15340;SDS011;7770;52.158;5.372;2024-01-11T10:28:49;43.20;;;24.57;;
15340;SDS011;7770;52.158;5.372;2024-01-11T10:31:35;41.00;;;24.20;;
15340;SDS011;7770;52.158;5.372;2024-01-11T10:34:22;44.73;;;27.13;;
15340;SDS011;7770;52.158;5.372;2024-01-11T10:37:09;48.33;;;26.80;;
15340;SDS011;7770;52.158;5.372;2024-01-11T10:39:55;42.17;;;24.90;;
15340;SDS011;7770;52.158;5.372;2024-01-11T10:42:44;50.37;;;26.50;;
15340;SDS011;7770;52.158;5.372;2024-01-11T10:45:37;43.97;;;25.73;;
15340;SDS011;7770;52.158;5.372;2024-01-11T10:48:26;43.53;;;24.93;;
15340;SDS011;7770;52.158;5.372;2024-01-11T10:51:16;41.57;;;24.67;;
15340;SDS011;7770;52.158;5.372;2024-01-11T10:54:08;44.63;;;24.37;;
15340;SDS011;7770;52.158;5.372;2024-01-11T10:56:54;41.60;;;23.70;;
15340;SDS011;7770;52.158;5.372;2024-01-11T10:59:41;42.27;;;25.27;;
15340;SDS011;7770;52.158;5.372;2024-01-11T11:02:30;43.10;;;25.37;;
15340;SDS011;7770;52.158;5.372;2024-01-11T11:05:19;43.60;;;24.47;;
15340;SDS011;7770;52.158;5.372;2024-01-11T11:08:08;42.23;;;24.60;;
15340;SDS011;7770;52.158;5.372;2024-01-11T11:10:56;40.30;;;25.53;;
15340;SDS011;7770;52.158;5.372;2024-01-11T11:13:43;37.07;;;22.47;;
15340;SDS011;7770;52.158;5.372;2024-01-11T11:16:34;40.53;;;24.20;;
15340;SDS011;7770;52.158;5.372;2024-01-11T11:19:20;40.93;;;22.83;;
15340;SDS011;7770;52.158;5.372;2024-01-11T11:22:06;37.13;;;23.03;;
15340;SDS011;7770;52.158;5.372;2024-01-11T11:25:11;39.23;;;22.70;;
15340;SDS011;7770;52.158;5.372;2024-01-11T11:28:13;34.77;;;21.83;;
15340;SDS011;7770;52.158;5.372;2024-01-11T11:31:03;36.63;;;22.50;;
15340;SDS011;7770;52.158;5.372;2024-01-11T11:33:49;37.70;;;22.27;;
15340;SDS011;7770;52.158;5.372;2024-01-11T11:36:39;36.80;;;22.67;;
15340;SDS011;7770;52.158;5.372;2024-01-11T11:39:27;37.50;;;21.60;;
15340;SDS011;7770;52.158;5.372;2024-01-11T11:42:13;34.27;;;20.97;;
15340;SDS011;7770;52.158;5.372;2024-01-11T11:45:00;37.43;;;22.10;;
15340;SDS011;7770;52.158;5.372;2024-01-11T11:47:46;38.07;;;22.57;;
15340;SDS011;7770;52.158;5.372;2024-01-11T11:50:32;36.77;;;22.67;;
15340;SDS011;7770;52.158;5.372;2024-01-11T11:53:20;34.43;;;21.33;;
15340;SDS011;7770;52.158;5.372;2024-01-11T11:56:06;36.07;;;23.93;;
15340;SDS011;7770;52.158;5.372;2024-01-11T11:58:57;33.40;;;21.90;;
15340;SDS011;7770;52.158;5.372;2024-01-11T12:01:44;32.73;;;21.60;;
15340;SDS011;7770;52.158;5.372;2024-01-11T12:04:30;32.93;;;21.17;;
15340;SDS011;7770;52.158;5.372;2024-01-11T12:07:16;35.00;;;21.83;;
15340;SDS011;7770;52.158;5.372;2024-01-11T12:10:02;35.03;;;22.00;;
15340;SDS011;7770;52.158;5.372;2024-01-11T12:12:51;31.13;;;21.03;;
15340;SDS011;7770;52.158;5.372;2024-01-11T12:15:38;31.13;;;21.23;;
15340;SDS011;7770;52.158;5.372;2024-01-11T12:18:24;40.27;;;28.30;;
15340;SDS011;7770;52.158;5.372;2024-01-11T12:21:10;30.97;;;21.10;;
15340;SDS011;7770;52.158;5.372;2024-01-11T12:23:56;28.50;;;20.50;;
15340;SDS011;7770;52.158;5.372;2024-01-11T12:26:43;36.70;;;26.40;;
15340;SDS011;7770;52.158;5.372;2024-01-11T12:29:29;37.93;;;26.03;;
15340;SDS011;7770;52.158;5.372;2024-01-11T12:32:15;34.87;;;24.10;;
15340;SDS011;7770;52.158;5.372;2024-01-11T12:35:03;40.63;;;30.20;;
15340;SDS011;7770;52.158;5.372;2024-01-11T12:38:05;40.23;;;28.00;;
15340;SDS011;7770;52.158;5.372;2024-01-11T12:40:51;37.57;;;27.37;;
15340;SDS011;7770;52.158;5.372;2024-01-11T12:43:38;31.47;;;23.60;;
15340;SDS011;7770;52.158;5.372;2024-01-11T12:46:24;31.77;;;23.10;;
15340;SDS011;7770;52.158;5.372;2024-01-11T12:49:10;34.73;;;24.13;;
15340;SDS011;7770;52.158;5.372;2024-01-11T12:51:56;32.60;;;21.47;;
15340;SDS011;7770;52.158;5.372;2024-01-11T12:54:43;29.73;;;20.87;;
15340;SDS011;7770;52.158;5.372;2024-01-11T12:57:32;31.47;;;22.00;;
15340;SDS011;7770;52.158;5.372;2024-01-11T13:00:18;31.77;;;20.43;;
15340;SDS011;7770;52.158;5.372;2024-01-11T13:03:05;42.93;;;30.60;;
15340;SDS011;7770;52.158;5.372;2024-01-11T13:05:51;36.03;;;24.97;;
15340;SDS011;7770;52.158;5.372;2024-01-11T13:08:37;30.77;;;20.60;;
15340;SDS011;7770;52.158;5.372;2024-01-11T13:11:26;28.77;;;21.30;;
15340;SDS011;7770;52.158;5.372;2024-01-11T13:14:13;29.73;;;20.63;;
15340;SDS011;7770;52.158;5.372;2024-01-11T13:17:04;29.30;;;20.47;;
15340;SDS011;7770;52.158;5.372;2024-01-11T13:19:50;26.87;;;18.80;;
15340;SDS011;7770;52.158;5.372;2024-01-11T13:22:36;29.23;;;19.23;;
15340;SDS011;7770;52.158;5.372;2024-01-11T13:25:22;25.10;;;19.03;;
15340;SDS011;7770;52.158;5.372;2024-01-11T13:28:08;27.03;;;19.00;;
15340;SDS011;7770;52.158;5.372;2024-01-11T13:30:56;26.50;;;18.07;;
15340;SDS011;7770;52.158;5.372;2024-01-11T13:33:42;26.97;;;18.43;;
15340;SDS011;7770;52.158;5.372;2024-01-11T13:36:28;23.23;;;17.00;;
15340;SDS011;7770;52.158;5.372;2024-01-11T13:39:14;25.50;;;18.17;;
15340;SDS011;7770;52.158;5.372;2024-01-11T13:42:03;25.03;;;18.30;;
15340;SDS011;7770;52.158;5.372;2024-01-11T13:44:54;23.70;;;17.50;;
15340;SDS011;7770;52.158;5.372;2024-01-11T13:47:41;24.77;;;17.10;;
15340;SDS011;7770;52.158;5.372;2024-01-11T13:50:27;23.73;;;17.67;;
15340;SDS011;7770;52.158;5.372;2024-01-11T13:53:13;26.20;;;18.27;;
15340;SDS011;7770;52.158;5.372;2024-01-11T13:55:59;25.40;;;19.60;;
15340;SDS011;7770;52.158;5.372;2024-01-11T13:58:46;25.43;;;19.63;;
15340;SDS011;7770;52.158;5.372;2024-01-11T14:01:32;24.20;;;16.70;;
15340;SDS011;7770;52.158;5.372;2024-01-11T14:04:18;25.33;;;17.97;;
15340;SDS011;7770;52.158;5.372;2024-01-11T14:07:05;23.90;;;17.30;;
15340;SDS011;7770;52.158;5.372;2024-01-11T14:09:51;23.83;;;16.60;;
15340;SDS011;7770;52.158;5.372;2024-01-11T14:12:37;24.03;;;16.77;;
15340;SDS011;7770;52.158;5.372;2024-01-11T14:15:24;23.63;;;15.80;;
15340;SDS011;7770;52.158;5.372;2024-01-11T14:18:10;24.50;;;16.20;;
15340;SDS011;7770;52.158;5.372;2024-01-11T14:20:56;25.90;;;17.47;;
15340;SDS011;7770;52.158;5.372;2024-01-11T14:23:42;31.30;;;21.00;;
15340;SDS011;7770;52.158;5.372;2024-01-11T14:26:28;24.97;;;18.70;;
15340;SDS011;7770;52.158;5.372;2024-01-11T14:29:14;25.93;;;17.90;;
15340;SDS011;7770;52.158;5.372;2024-01-11T14:32:01;25.10;;;17.83;;
15340;SDS011;7770;52.158;5.372;2024-01-11T14:34:47;25.67;;;18.23;;
15340;SDS011;7770;52.158;5.372;2024-01-11T14:37:33;26.37;;;18.37;;
15340;SDS011;7770;52.158;5.372;2024-01-11T14:40:21;25.57;;;17.80;;
15340;SDS011;7770;52.158;5.372;2024-01-11T14:43:07;28.43;;;17.60;;
15340;SDS011;7770;52.158;5.372;2024-01-11T14:45:53;29.20;;;18.30;;
15340;SDS011;7770;52.158;5.372;2024-01-11T14:48:40;26.20;;;19.40;;
15340;SDS011;7770;52.158;5.372;2024-01-11T14:51:26;29.23;;;18.93;;
15340;SDS011;7770;52.158;5.372;2024-01-11T14:54:16;26.50;;;20.00;;
15340;SDS011;7770;52.158;5.372;2024-01-11T14:57:04;28.03;;;20.00;;
15340;SDS011;7770;52.158;5.372;2024-01-11T14:59:50;26.20;;;19.73;;
15340;SDS011;7770;52.158;5.372;2024-01-11T15:02:36;29.73;;;20.80;;
15340;SDS011;7770;52.158;5.372;2024-01-11T15:05:22;31.03;;;20.43;;
15340;SDS011;7770;52.158;5.372;2024-01-11T15:08:08;30.80;;;21.57;;
15340;SDS011;7770;52.158;5.372;2024-01-11T15:10:54;29.87;;;19.53;;
15340;SDS011;7770;52.158;5.372;2024-01-11T15:13:40;26.70;;;19.23;;
15340;SDS011;7770;52.158;5.372;2024-01-11T15:16:28;29.53;;;22.13;;
15340;SDS011;7770;52.158;5.372;2024-01-11T15:19:14;30.63;;;21.60;;
15340;SDS011;7770;52.158;5.372;2024-01-11T15:22:00;28.87;;;19.97;;
15340;SDS011;7770;52.158;5.372;2024-01-11T15:24:46;31.20;;;20.77;;
15340;SDS011;7770;52.158;5.372;2024-01-11T15:27:38;30.27;;;20.77;;
15340;SDS011;7770;52.158;5.372;2024-01-11T15:30:24;33.87;;;22.20;;
15340;SDS011;7770;52.158;5.372;2024-01-11T15:33:10;31.67;;;21.47;;
15340;SDS011;7770;52.158;5.372;2024-01-11T15:35:56;30.10;;;20.83;;
15340;SDS011;7770;52.158;5.372;2024-01-11T15:38:43;30.73;;;20.70;;
15340;SDS011;7770;52.158;5.372;2024-01-11T15:41:29;35.00;;;21.73;;
15340;SDS011;7770;52.158;5.372;2024-01-11T15:44:16;31.77;;;21.03;;
15340;SDS011;7770;52.158;5.372;2024-01-11T15:47:03;32.57;;;21.33;;
15340;SDS011;7770;52.158;5.372;2024-01-11T15:49:49;30.83;;;20.90;;
15340;SDS011;7770;52.158;5.372;2024-01-11T15:52:38;32.33;;;20.03;;
15340;SDS011;7770;52.158;5.372;2024-01-11T15:55:27;30.60;;;20.37;;
15340;SDS011;7770;52.158;5.372;2024-01-11T15:58:13;33.20;;;22.20;;
15340;SDS011;7770;52.158;5.372;2024-01-11T16:00:59;31.67;;;20.83;;
15340;SDS011;7770;52.158;5.372;2024-01-11T16:03:45;28.87;;;21.30;;
15340;SDS011;7770;52.158;5.372;2024-01-11T16:06:33;29.10;;;20.63;;
15340;SDS011;7770;52.158;5.372;2024-01-11T16:09:19;30.17;;;21.30;;
15340;SDS011;7770;52.158;5.372;2024-01-11T16:12:05;30.57;;;20.97;;
15340;SDS011;7770;52.158;5.372;2024-01-11T16:14:51;28.20;;;20.67;;
15340;SDS011;7770;52.158;5.372;2024-01-11T16:17:42;29.17;;;21.40;;
15340;SDS011;7770;52.158;5.372;2024-01-11T16:20:28;29.27;;;21.53;;
15340;SDS011;7770;52.158;5.372;2024-01-11T16:23:14;28.70;;;19.87;;
15340;SDS011;7770;52.158;5.372;2024-01-11T16:26:00;29.33;;;20.60;;
15340;SDS011;7770;52.158;5.372;2024-01-11T16:28:46;34.10;;;20.57;;